La Grande Rivière Airport
CYGL : now visible

Airfield :











YOU CAN JOIN US ON...

 
LOGIN :

Register | Disclaimer

   EN    FR    IT 

 









Legend :    VFR   Marginal VFR   IFR   Intensive IFR   Very Intensive IFR
Visi :
Ceiling :
>= 8 km
>= 3000ft
5 to 8 km
1000 to 3000 ft
1500m to 5 km
500 to 1000 ft
800 to 1500m
200 to 500 ft
< 800m
< 200 ft
Symbols :   Thunderstorms  Fog  Heavy snow  Heavy precipitations  Wind > 20 kt






- Airport Elevation : 639 ft
- IATA code : YGL


CYGL - La Grande Rivière

CURRENT METAR :
  • 011400Z 17005KT 15SM IC SCT220 M33/M36 A2999 RMK CI4 SLP188

EXPIRED METARs :
  • 011300Z 14002KT 15SM IC SCT200 M36/M39 A2999 RMK CI3 SLP189
  • 011200Z 18003KT 15SM IC SCT200 M34/M38 A2998 RMK CI3 SLP186

TAF TAF CYGL
Valid from the 01 at 12:00 until the 02 at 12:00 UTC


011140Z 0112/0212 VRB03KT P6SM FEW020
TEMPO 0112/0118 5SM IC
BECMG 0112/0114 23005KT
FM011800 24010KT P6SM FEW200
BECMG 0200/0202 19007KT
FM020300 19007KT 6SM BR FEW005
PROB30 0203/0212 1SM BR BKN003 RMK NXT FCST BY 011800Z
CZUL FIR / North America



MET'MAP, your aeronautical weather chart ! - Copyright ORBIFLY December 2007 - Disclaimer

ORBIFLY MET'MAP TEAM :

Programming & Development : Alexandra Zaïnal
Original concept : Baudouin d'Aumeries
Technical & hardware support : Manuel Goepfert
Assistance : Marc-Olivier Méhu




SOURCES & CREDITS :

   NOAA       Earth
Advisory